createdAt,value
2018-01-17T00:01:02.114Z,0
2018-01-17T00:02:12.051Z,0
2018-01-17T00:03:22.003Z,0
2018-01-17T00:04:31.956Z,0
2018-01-17T00:05:41.643Z,0
2018-01-17T00:06:51.587Z,0
2018-01-17T00:08:01.273Z,0
2018-01-17T00:09:11.203Z,0
2018-01-17T00:10:20.905Z,0
2018-01-17T00:11:30.592Z,0
2018-01-17T00:12:40.557Z,0
2018-01-17T00:13:50.491Z,0
2018-01-17T00:15:00.432Z,0
2018-01-17T00:16:10.368Z,0
2018-01-17T00:17:20.051Z,0
2018-01-17T00:18:29.986Z,0
2018-01-17T00:19:39.963Z,0
2018-01-17T00:20:49.915Z,0
2018-01-17T00:21:59.869Z,0
2018-01-17T00:23:09.835Z,0
2018-01-17T00:24:19.575Z,0
2018-01-17T00:25:29.577Z,0
2018-01-17T00:26:39.518Z,0
2018-01-17T00:27:49.197Z,0
2018-01-17T00:28:58.881Z,0
2018-01-17T00:30:08.832Z,0
2018-01-17T00:31:18.527Z,0
2018-01-17T00:32:28.472Z,0
2018-01-17T00:33:38.148Z,0
2018-01-17T00:34:48.079Z,0
2018-01-17T00:35:57.504Z,0
2018-01-17T00:37:07.454Z,0
2018-01-17T00:38:17.135Z,0
2018-01-17T00:39:27.080Z,0
2018-01-17T00:40:37.021Z,0
2018-01-17T00:41:46.960Z,0
2018-01-17T00:42:56.902Z,0
2018-01-17T00:44:06.848Z,0
2018-01-17T00:45:16.778Z,0
2018-01-17T00:46:26.706Z,0
2018-01-17T00:47:36.646Z,0
2018-01-17T00:48:46.582Z,0
2018-01-17T00:49:56.521Z,0
2018-01-17T00:51:05.937Z,0
2018-01-17T00:52:15.612Z,0
2018-01-17T00:53:25.286Z,0
2018-01-17T00:54:35.228Z,0
2018-01-17T00:55:45.165Z,0
2018-01-17T00:56:55.103Z,0
2018-01-17T00:58:05.038Z,0
2018-01-17T00:59:14.457Z,0
2018-01-17T01:00:24.405Z,0
2018-01-17T01:01:34.117Z,0
2018-01-17T01:02:44.066Z,0
2018-01-17T01:03:53.997Z,0
2018-01-17T01:05:03.934Z,0
2018-01-17T01:06:13.885Z,0
2018-01-17T01:07:23.312Z,0
2018-01-17T01:08:32.243Z,0
2018-01-17T01:09:41.926Z,0
2018-01-17T01:10:51.603Z,0
2018-01-17T01:12:01.295Z,0
2018-01-17T01:13:10.979Z,0
2018-01-17T01:14:20.927Z,0
2018-01-17T01:15:30.888Z,0
2018-01-17T01:16:40.822Z,0
2018-01-17T01:17:50.766Z,0
2018-01-17T01:19:00.701Z,0
2018-01-17T01:20:10.638Z,0
2018-01-17T01:21:20.587Z,0
2018-01-17T01:22:30.528Z,0
2018-01-17T01:23:40.210Z,0
2018-01-17T01:24:49.896Z,0
2018-01-17T01:25:59.599Z,0
2018-01-17T01:27:09.303Z,0
2018-01-17T01:28:18.738Z,0
2018-01-17T01:29:28.680Z,0
2018-01-17T01:30:38.632Z,0
2018-01-17T01:31:48.351Z,0
2018-01-17T01:32:58.029Z,0
2018-01-17T01:34:07.980Z,0
2018-01-17T01:35:17.913Z,0
2018-01-17T01:36:27.851Z,0
2018-01-17T01:37:37.792Z,0
2018-01-17T01:38:47.733Z,0
2018-01-17T01:39:57.415Z,0
2018-01-17T01:41:07.355Z,0
2018-01-17T01:42:17.286Z,0
2018-01-17T01:43:27.222Z,0
2018-01-17T01:44:36.903Z,0
2018-01-17T01:45:46.829Z,0
2018-01-17T01:46:56.769Z,0
2018-01-17T01:48:06.712Z,0
2018-01-17T01:49:16.693Z,0
2018-01-17T01:50:26.632Z,0
2018-01-17T01:51:36.630Z,0
2018-01-17T01:52:46.326Z,0
2018-01-17T01:53:56.259Z,0
2018-01-17T01:55:06.204Z,0
2018-01-17T01:56:16.162Z,0
2018-01-17T01:57:25.841Z,0
2018-01-17T01:58:35.523Z,0
2018-01-17T01:59:45.461Z,0
2018-01-17T02:00:55.406Z,0
2018-01-17T02:02:05.338Z,0
2018-01-17T02:03:15.279Z,0
2018-01-17T02:04:24.964Z,0
2018-01-17T02:05:34.906Z,0
2018-01-17T02:06:44.852Z,0
2018-01-17T02:07:54.807Z,0
2018-01-17T02:09:04.745Z,0
2018-01-17T02:10:14.678Z,0
2018-01-17T02:11:24.619Z,0
2018-01-17T02:12:34.559Z,0
2018-01-17T02:13:44.506Z,0
2018-01-17T02:14:54.444Z,0
2018-01-17T02:16:04.392Z,0
2018-01-17T02:17:14.337Z,0
2018-01-17T02:18:24.284Z,0
2018-01-17T02:19:33.979Z,0
2018-01-17T02:20:43.660Z,0
2018-01-17T02:21:53.597Z,0
2018-01-17T02:23:03.284Z,0
2018-01-17T02:24:12.989Z,0
2018-01-17T02:25:22.926Z,0
2018-01-17T02:26:32.931Z,0
2018-01-17T02:27:42.875Z,0
2018-01-17T02:28:52.309Z,0
2018-01-17T02:30:02.290Z,0
2018-01-17T02:31:12.240Z,0
2018-01-17T02:32:21.967Z,0
2018-01-17T02:33:31.930Z,0
2018-01-17T02:34:41.884Z,0
2018-01-17T02:35:51.829Z,0
2018-01-17T02:37:01.773Z,0
2018-01-17T02:38:11.731Z,0
2018-01-17T02:39:21.668Z,0
2018-01-17T02:40:31.614Z,0
2018-01-17T02:41:41.574Z,0
2018-01-17T02:42:51.520Z,0
2018-01-17T02:44:01.463Z,0
2018-01-17T02:45:11.419Z,0
2018-01-17T02:46:21.112Z,0
2018-01-17T02:47:31.085Z,0
2018-01-17T02:48:40.783Z,0
2018-01-17T02:49:50.733Z,0
2018-01-17T02:51:00.704Z,0
2018-01-17T02:52:11.897Z,0
2018-01-17T02:53:21.587Z,0
2018-01-17T02:54:31.521Z,0
2018-01-17T02:55:41.474Z,0
2018-01-17T02:56:50.915Z,0
2018-01-17T02:58:00.861Z,0
2018-01-17T02:59:10.552Z,0
2018-01-17T03:00:20.501Z,0
2018-01-17T03:01:30.436Z,0
2018-01-17T03:02:40.134Z,0
2018-01-17T03:03:50.083Z,0
2018-01-17T03:05:00.035Z,0
2018-01-17T03:06:09.984Z,0
2018-01-17T03:07:19.675Z,0
2018-01-17T03:08:29.365Z,0
2018-01-17T03:09:39.307Z,0
2018-01-17T03:10:49.254Z,0
2018-01-17T03:11:58.948Z,0
2018-01-17T03:13:08.633Z,0
2018-01-17T03:14:18.590Z,0
2018-01-17T03:15:28.556Z,0
2018-01-17T03:16:37.999Z,0
2018-01-17T03:17:47.960Z,0
2018-01-17T03:18:57.947Z,0
2018-01-17T03:20:07.887Z,0
2018-01-17T03:21:17.851Z,0
2018-01-17T03:22:27.534Z,0
2018-01-17T03:23:37.481Z,0
2018-01-17T03:24:47.418Z,0
2018-01-17T03:25:57.423Z,0
2018-01-17T03:27:07.102Z,0
2018-01-17T03:28:16.775Z,0
2018-01-17T03:29:26.702Z,0
2018-01-17T03:30:36.653Z,0
2018-01-17T03:31:46.590Z,0
2018-01-17T03:32:56.526Z,0
2018-01-17T03:34:06.462Z,0
2018-01-17T03:35:16.145Z,0
2018-01-17T03:36:26.078Z,0
2018-01-17T03:37:36.032Z,0
2018-01-17T03:38:45.709Z,0
2018-01-17T03:39:55.639Z,0
2018-01-17T03:41:05.577Z,0
2018-01-17T03:42:15.513Z,0
2018-01-17T03:43:25.450Z,0
2018-01-17T03:44:35.129Z,0
2018-01-17T03:45:45.103Z,0
2018-01-17T03:46:54.841Z,0
2018-01-17T03:48:04.785Z,0
2018-01-17T03:49:14.752Z,0
2018-01-17T03:50:24.740Z,0
2018-01-17T03:51:34.738Z,0
2018-01-17T03:52:44.657Z,0
2018-01-17T03:53:54.629Z,0
2018-01-17T03:55:04.590Z,0
2018-01-17T03:56:14.274Z,0
2018-01-17T03:57:24.219Z,0
2018-01-17T03:58:34.183Z,0
2018-01-17T03:59:44.130Z,0
2018-01-17T04:00:54.064Z,0
2018-01-17T04:02:03.894Z,0
2018-01-17T04:03:13.572Z,0
2018-01-17T04:04:23.525Z,0
2018-01-17T04:05:33.228Z,0
2018-01-17T04:06:43.165Z,0
2018-01-17T04:07:53.105Z,0
2018-01-17T04:09:03.039Z,0
2018-01-17T04:10:12.728Z,0
2018-01-17T04:11:22.666Z,0
2018-01-17T04:12:32.604Z,0
2018-01-17T04:13:42.538Z,0
2018-01-17T04:14:52.475Z,0
2018-01-17T04:16:02.163Z,0
2018-01-17T04:17:12.108Z,0
2018-01-17T04:18:21.808Z,0
2018-01-17T04:19:31.749Z,0
2018-01-17T04:20:41.431Z,0
2018-01-17T04:21:51.363Z,0
2018-01-17T04:23:01.034Z,0
2018-01-17T04:24:10.985Z,0
2018-01-17T04:25:20.922Z,0
2018-01-17T04:26:30.602Z,0
2018-01-17T04:27:40.555Z,0
2018-01-17T04:28:50.247Z,0
2018-01-17T04:30:00.184Z,0
2018-01-17T04:31:10.116Z,0
2018-01-17T04:32:19.802Z,0
2018-01-17T04:33:29.480Z,0
2018-01-17T04:34:39.413Z,0
2018-01-17T04:35:49.348Z,0
2018-01-17T04:36:59.287Z,0
2018-01-17T04:38:09.276Z,0
2018-01-17T04:39:19.211Z,0
2018-01-17T04:40:29.157Z,0
2018-01-17T04:41:39.093Z,0
2018-01-17T04:42:49.031Z,0
2018-01-17T04:43:58.964Z,0
2018-01-17T04:45:08.904Z,0
2018-01-17T04:46:18.850Z,0
2018-01-17T04:47:28.786Z,0
2018-01-17T04:48:38.464Z,0
2018-01-17T04:49:48.406Z,0
2018-01-17T04:50:58.347Z,0
2018-01-17T04:52:08.287Z,0
2018-01-17T04:53:18.226Z,0
2018-01-17T04:54:28.171Z,0
2018-01-17T04:55:37.857Z,0
2018-01-17T04:56:47.808Z,0
2018-01-17T04:57:57.489Z,0
2018-01-17T04:59:07.436Z,0
2018-01-17T05:00:17.380Z,0
2018-01-17T05:01:27.324Z,0
2018-01-17T05:02:36.997Z,0
2018-01-17T05:03:46.677Z,0
2018-01-17T05:04:56.615Z,0
2018-01-17T05:06:06.626Z,0
2018-01-17T05:07:16.310Z,0
2018-01-17T05:08:26.268Z,0
2018-01-17T05:09:36.208Z,0
2018-01-17T05:10:45.902Z,0
2018-01-17T05:11:55.855Z,0
2018-01-17T05:13:05.819Z,0
2018-01-17T05:14:15.767Z,0
2018-01-17T05:15:25.709Z,0
2018-01-17T05:16:35.671Z,0
2018-01-17T05:17:45.612Z,0
2018-01-17T05:18:55.542Z,0
2018-01-17T05:20:05.490Z,0
2018-01-17T05:21:15.441Z,0
2018-01-17T05:22:25.391Z,0
2018-01-17T05:23:35.327Z,0
2018-01-17T05:24:45.286Z,0
2018-01-17T05:25:55.225Z,0
2018-01-17T05:27:05.175Z,0
2018-01-17T05:28:15.117Z,0
2018-01-17T05:29:25.053Z,0
2018-01-17T05:30:35.004Z,0
2018-01-17T05:31:44.945Z,0
2018-01-17T05:32:54.889Z,0
2018-01-17T05:34:04.819Z,0
2018-01-17T05:35:14.757Z,0
2018-01-17T05:36:24.689Z,0
2018-01-17T05:37:34.368Z,0
2018-01-17T05:38:44.070Z,0
2018-01-17T05:39:54.004Z,0
2018-01-17T05:41:04.040Z,0
2018-01-17T05:42:13.731Z,0
2018-01-17T05:43:23.418Z,0
2018-01-17T05:44:33.105Z,0
2018-01-17T05:45:42.544Z,0
2018-01-17T05:46:52.546Z,0
2018-01-17T05:48:02.237Z,0
2018-01-17T05:49:12.188Z,0
2018-01-17T05:50:22.141Z,0
2018-01-17T05:51:32.082Z,0
2018-01-17T05:52:42.075Z,0
2018-01-17T05:53:52.015Z,0
2018-01-17T05:55:01.960Z,0
2018-01-17T05:56:11.897Z,0
2018-01-17T05:57:21.835Z,0
2018-01-17T05:58:31.774Z,0
2018-01-17T05:59:41.454Z,0
2018-01-17T06:00:51.400Z,0
2018-01-17T06:02:01.336Z,0
2018-01-17T06:03:11.024Z,0
2018-01-17T06:04:20.959Z,0
2018-01-17T06:05:30.380Z,0
2018-01-17T06:06:40.330Z,0
2018-01-17T06:07:50.261Z,0
2018-01-17T06:08:59.939Z,0
2018-01-17T06:10:09.879Z,0
2018-01-17T06:11:19.839Z,0
2018-01-17T06:12:29.792Z,0
2018-01-17T06:13:39.476Z,0
2018-01-17T06:14:49.163Z,0
2018-01-17T06:15:58.857Z,0
2018-01-17T06:17:08.869Z,0
2018-01-17T06:18:18.505Z,0
2018-01-17T06:19:28.192Z,0
2018-01-17T06:20:38.157Z,0
2018-01-17T06:21:48.138Z,0
2018-01-17T06:22:57.823Z,0
2018-01-17T06:24:07.498Z,0
2018-01-17T06:25:17.605Z,0
2018-01-17T06:26:27.543Z,0
2018-01-17T06:27:37.221Z,0
2018-01-17T06:28:47.175Z,0
2018-01-17T06:29:57.121Z,0
2018-01-17T06:31:07.093Z,0
2018-01-17T06:32:16.793Z,0
2018-01-17T06:33:26.806Z,0
2018-01-17T06:34:36.746Z,0
2018-01-17T06:35:46.705Z,0
2018-01-17T06:36:56.653Z,0
2018-01-17T06:38:06.333Z,0
2018-01-17T06:39:16.022Z,0
2018-01-17T06:40:25.986Z,0
2018-01-17T06:41:35.936Z,0
2018-01-17T06:42:45.873Z,0
2018-01-17T06:43:55.823Z,0
2018-01-17T06:45:05.759Z,0
2018-01-17T06:46:15.710Z,0
2018-01-17T06:47:25.662Z,0
2018-01-17T06:48:35.614Z,0
2018-01-17T06:49:45.750Z,0
2018-01-17T06:50:55.690Z,0
2018-01-17T06:52:05.739Z,0
2018-01-17T06:53:15.705Z,0
2018-01-17T06:54:25.717Z,0
2018-01-17T06:55:35.158Z,0
2018-01-17T06:56:44.844Z,5
2018-01-17T06:57:54.794Z,5
2018-01-17T06:59:04.761Z,5
2018-01-17T07:00:14.197Z,5
2018-01-17T07:01:24.162Z,5
2018-01-17T07:02:34.117Z,5
2018-01-17T07:03:44.100Z,10
2018-01-17T07:04:54.051Z,10
2018-01-17T07:06:03.752Z,10
2018-01-17T07:07:13.180Z,10
2018-01-17T07:08:23.129Z,10
2018-01-17T07:09:32.843Z,10
2018-01-17T07:10:42.535Z,10
2018-01-17T07:11:52.474Z,10
2018-01-17T07:13:02.165Z,15
2018-01-17T07:14:12.118Z,15
2018-01-17T07:15:21.801Z,15
2018-01-17T07:16:31.489Z,20
2018-01-17T07:17:41.453Z,20
2018-01-17T07:18:51.399Z,25
2018-01-17T07:20:01.093Z,25
2018-01-17T07:21:11.036Z,25
2018-01-17T07:22:20.991Z,25
2018-01-17T07:23:31.025Z,30
2018-01-17T07:24:40.716Z,30
2018-01-17T07:25:50.708Z,35
2018-01-17T07:27:00.674Z,35
2018-01-17T07:28:10.361Z,35
2018-01-17T07:29:20.297Z,40
2018-01-17T07:30:30.255Z,40
2018-01-17T07:31:39.761Z,40
2018-01-17T07:32:49.446Z,40
2018-01-17T07:33:59.154Z,40
2018-01-17T07:35:09.141Z,40
2018-01-17T07:36:19.144Z,45
2018-01-17T07:37:29.139Z,45
2018-01-17T07:38:39.114Z,45
2018-01-17T07:39:49.075Z,45
2018-01-17T07:40:59.029Z,45
2018-01-17T07:42:08.990Z,50
2018-01-17T07:43:18.994Z,50
2018-01-17T07:44:28.944Z,50
2018-01-17T07:45:38.913Z,55
2018-01-17T07:46:48.646Z,60
2018-01-17T07:47:58.593Z,60
2018-01-17T07:49:08.516Z,65
2018-01-17T07:50:18.518Z,65
2018-01-17T07:51:28.472Z,65
2018-01-17T07:52:38.166Z,70
2018-01-17T07:53:48.177Z,70
2018-01-17T07:54:57.860Z,70
2018-01-17T07:56:07.347Z,65
2018-01-17T07:57:17.289Z,65
2018-01-17T07:58:27.298Z,65
2018-01-17T07:59:37.283Z,65
2018-01-17T08:00:46.988Z,65
2018-01-17T08:01:56.932Z,65
2018-01-17T08:03:06.640Z,65
2018-01-17T08:04:16.091Z,70
2018-01-17T08:05:26.077Z,70
2018-01-17T08:06:36.024Z,65
2018-01-17T08:07:46.010Z,65
2018-01-17T08:08:55.978Z,75
2018-01-17T08:10:05.927Z,75
2018-01-17T08:11:15.638Z,70
2018-01-17T08:12:25.859Z,70
2018-01-17T08:13:35.832Z,75
2018-01-17T08:14:45.824Z,75
2018-01-17T08:15:55.768Z,75
2018-01-17T08:17:05.719Z,75
2018-01-17T08:18:15.661Z,75
2018-01-17T08:19:25.628Z,75
2018-01-17T08:20:35.687Z,80
2018-01-17T08:21:45.378Z,80
2018-01-17T08:22:55.070Z,80
2018-01-17T08:24:05.015Z,75
2018-01-17T08:25:14.972Z,75
2018-01-17T08:26:24.408Z,80
2018-01-17T08:27:34.104Z,80
2018-01-17T08:28:44.046Z,80
2018-01-17T08:29:53.994Z,80
2018-01-17T08:31:03.959Z,75
2018-01-17T08:32:13.677Z,65
2018-01-17T08:33:23.371Z,65
2018-01-17T08:34:33.076Z,65
2018-01-17T08:35:43.027Z,65
2018-01-17T08:36:52.732Z,60
2018-01-17T08:38:02.445Z,65
2018-01-17T08:39:12.401Z,70
2018-01-17T08:40:22.087Z,70
2018-01-17T08:41:32.029Z,65
2018-01-17T08:42:41.969Z,65
2018-01-17T08:43:51.934Z,65
2018-01-17T08:45:01.900Z,65
2018-01-17T08:46:11.844Z,55
2018-01-17T08:47:21.788Z,55
2018-01-17T08:48:31.524Z,45
2018-01-17T08:49:41.220Z,45
2018-01-17T08:50:51.161Z,40
2018-01-17T08:52:01.114Z,35
2018-01-17T08:53:10.810Z,40
2018-01-17T08:54:20.747Z,35
2018-01-17T08:55:30.444Z,40
2018-01-17T08:56:40.117Z,40
2018-01-17T08:57:50.076Z,45
2018-01-17T08:59:00.279Z,50
2018-01-17T09:00:09.990Z,50
2018-01-17T09:01:19.943Z,55
2018-01-17T09:02:29.668Z,55
2018-01-17T09:03:39.652Z,55
2018-01-17T09:04:49.612Z,55
2018-01-17T09:05:59.318Z,50
2018-01-17T09:07:09.312Z,50
2018-01-17T09:08:19.254Z,50
2018-01-17T09:09:29.197Z,50
2018-01-17T09:10:38.886Z,50
2018-01-17T09:11:48.849Z,50
2018-01-17T09:12:58.876Z,45
2018-01-17T09:14:08.837Z,40
2018-01-17T09:15:18.550Z,45
2018-01-17T09:16:28.519Z,50
2018-01-17T09:17:38.220Z,55
2018-01-17T09:18:48.156Z,45
2018-01-17T09:19:58.104Z,50
2018-01-17T09:21:08.063Z,55
2018-01-17T09:22:17.753Z,55
2018-01-17T09:23:27.442Z,65
2018-01-17T09:24:37.381Z,65
2018-01-17T09:25:47.066Z,65
2018-01-17T09:26:57.058Z,70
2018-01-17T09:28:07.011Z,80
2018-01-17T09:29:16.966Z,85
2018-01-17T09:30:26.916Z,85
2018-01-17T09:31:37.068Z,85
2018-01-17T09:32:47.058Z,90
2018-01-17T09:33:57.039Z,85
2018-01-17T09:35:06.732Z,90
2018-01-17T09:36:16.672Z,95
2018-01-17T09:37:26.314Z,95
2018-01-17T09:38:36.263Z,90
2018-01-17T09:39:46.216Z,90
2018-01-17T09:40:56.153Z,90
2018-01-17T09:42:06.117Z,90
2018-01-17T09:43:16.070Z,90
2018-01-17T09:44:26.020Z,80
2018-01-17T09:45:36.035Z,70
2018-01-17T09:46:45.985Z,75
2018-01-17T09:47:55.927Z,80
2018-01-17T09:49:05.866Z,85
2018-01-17T09:50:15.551Z,90
2018-01-17T09:51:25.239Z,75
2018-01-17T09:52:35.206Z,85
2018-01-17T09:53:45.164Z,90
2018-01-17T09:54:55.120Z,110
2018-01-17T09:56:05.074Z,105
2018-01-17T09:57:15.018Z,100
2018-01-17T09:58:24.969Z,105
2018-01-17T09:59:34.905Z,125
2018-01-17T10:00:44.600Z,145
2018-01-17T10:01:54.550Z,155
2018-01-17T10:03:04.496Z,150
2018-01-17T10:04:13.926Z,140
2018-01-17T10:05:23.872Z,145
2018-01-17T10:06:33.688Z,150
2018-01-17T10:07:43.369Z,150
2018-01-17T10:08:53.310Z,145
2018-01-17T10:10:03.284Z,145
2018-01-17T10:11:13.251Z,180
2018-01-17T10:12:23.495Z,185
2018-01-17T10:13:33.448Z,190
2018-01-17T10:14:43.385Z,190
2018-01-17T10:15:53.093Z,190
2018-01-17T10:17:02.794Z,165
2018-01-17T10:18:12.736Z,150
2018-01-17T10:19:22.440Z,145
2018-01-17T10:20:32.137Z,155
2018-01-17T10:21:41.584Z,150
2018-01-17T10:22:51.559Z,150
2018-01-17T10:24:01.308Z,160
2018-01-17T10:25:11.247Z,155
2018-01-17T10:26:20.936Z,155
2018-01-17T10:27:30.984Z,155
2018-01-17T10:28:40.926Z,165
2018-01-17T10:29:50.889Z,230
2018-01-17T10:31:00.841Z,260
2018-01-17T10:32:10.781Z,260
2018-01-17T10:33:20.478Z,235
2018-01-17T10:34:30.183Z,220
2018-01-17T10:35:39.639Z,205
2018-01-17T10:36:49.317Z,200
2018-01-17T10:37:59.287Z,190
2018-01-17T10:39:09.251Z,195
2018-01-17T10:40:18.951Z,200
2018-01-17T10:41:28.667Z,190
2018-01-17T10:42:38.646Z,180
2018-01-17T10:43:48.835Z,195
2018-01-17T10:44:58.784Z,190
2018-01-17T10:46:08.767Z,205
2018-01-17T10:47:18.522Z,215
2018-01-17T10:48:28.491Z,220
2018-01-17T10:49:38.445Z,225
2018-01-17T10:50:48.427Z,215
2018-01-17T10:51:58.117Z,230
2018-01-17T10:53:08.104Z,250
2018-01-17T10:54:18.057Z,260
2018-01-17T10:55:27.504Z,275
2018-01-17T10:56:36.680Z,330
2018-01-17T10:57:46.364Z,400
2018-01-17T10:58:56.303Z,415
2018-01-17T11:00:06.018Z,450
2018-01-17T11:01:15.983Z,475
2018-01-17T11:02:25.940Z,500
2018-01-17T11:03:35.898Z,470
2018-01-17T11:04:45.863Z,365
2018-01-17T11:05:55.868Z,340
2018-01-17T11:07:05.831Z,355
2018-01-17T11:08:15.776Z,345
2018-01-17T11:09:25.729Z,340
2018-01-17T11:10:35.428Z,365
2018-01-17T11:11:45.392Z,440
2018-01-17T11:12:55.357Z,475
2018-01-17T11:14:05.313Z,485
2018-01-17T11:15:15.028Z,500
2018-01-17T11:16:24.783Z,590
2018-01-17T11:17:34.729Z,1350
2018-01-17T11:18:44.684Z,595
2018-01-17T11:19:54.379Z,480
2018-01-17T11:21:03.828Z,445
2018-01-17T11:22:13.781Z,405
2018-01-17T11:23:23.530Z,365
2018-01-17T11:24:33.548Z,345
2018-01-17T11:25:43.491Z,350
2018-01-17T11:26:53.490Z,315
2018-01-17T11:28:03.473Z,270
2018-01-17T11:29:13.443Z,245
2018-01-17T11:30:23.402Z,280
2018-01-17T11:31:33.394Z,260
2018-01-17T11:32:43.082Z,230
2018-01-17T11:33:52.794Z,220
2018-01-17T11:35:02.736Z,190
2018-01-17T11:36:12.704Z,215
2018-01-17T11:37:22.716Z,160
2018-01-17T11:38:32.712Z,145
2018-01-17T11:39:42.711Z,130
2018-01-17T11:40:52.453Z,155
2018-01-17T11:42:02.181Z,160
2018-01-17T11:43:11.886Z,140
2018-01-17T11:44:21.855Z,115
2018-01-17T11:45:31.809Z,80
2018-01-17T11:46:41.755Z,75
2018-01-17T11:47:51.704Z,85
2018-01-17T11:49:01.705Z,85
2018-01-17T11:50:11.661Z,90
2018-01-17T11:51:21.388Z,85
2018-01-17T11:52:31.093Z,85
2018-01-17T11:53:40.793Z,85
2018-01-17T11:54:50.239Z,85
2018-01-17T11:56:00.247Z,75
2018-01-17T11:57:10.264Z,85
2018-01-17T11:58:19.960Z,85
2018-01-17T11:59:29.909Z,85
2018-01-17T12:00:40.056Z,105
2018-01-17T12:01:49.772Z,100
2018-01-17T12:02:59.476Z,110
2018-01-17T12:04:09.179Z,125
2018-01-17T12:05:19.127Z,160
2018-01-17T12:06:28.609Z,130
2018-01-17T12:07:38.567Z,110
2018-01-17T12:08:48.558Z,155
2018-01-17T12:09:58.522Z,150
2018-01-17T12:11:08.478Z,135
2018-01-17T12:12:19.188Z,110
2018-01-17T12:13:29.153Z,130
2018-01-17T12:14:38.863Z,110
2018-01-17T12:15:48.584Z,120
2018-01-17T12:16:58.302Z,115
2018-01-17T12:18:08.260Z,110
2018-01-17T12:19:18.311Z,90
2018-01-17T12:20:28.269Z,95
2018-01-17T12:21:37.972Z,105
2018-01-17T12:22:47.941Z,105
2018-01-17T12:23:58.127Z,105
2018-01-17T12:25:08.088Z,105
2018-01-17T12:26:18.057Z,85
2018-01-17T12:27:27.754Z,115
2018-01-17T12:28:37.456Z,110
2018-01-17T12:29:47.421Z,115
2018-01-17T12:30:57.373Z,115
2018-01-17T12:32:07.086Z,120
2018-01-17T12:33:16.545Z,130
2018-01-17T12:34:26.497Z,125
2018-01-17T12:35:36.196Z,125
2018-01-17T12:36:46.193Z,120
2018-01-17T12:37:56.174Z,120
2018-01-17T12:39:05.631Z,125
2018-01-17T12:40:15.585Z,135
2018-01-17T12:41:25.536Z,130
2018-01-17T12:42:35.488Z,130
2018-01-17T12:43:45.438Z,105
2018-01-17T12:44:55.387Z,90
2018-01-17T12:46:05.075Z,85
2018-01-17T12:47:15.031Z,75
2018-01-17T12:48:25.068Z,75
2018-01-17T12:49:34.803Z,70
2018-01-17T12:50:44.511Z,65
2018-01-17T12:51:54.467Z,65
2018-01-17T12:53:04.447Z,65
2018-01-17T12:54:14.542Z,65
2018-01-17T12:55:24.264Z,65
2018-01-17T12:56:33.971Z,65
2018-01-17T12:57:43.942Z,70
2018-01-17T12:58:53.917Z,75
2018-01-17T13:00:03.870Z,70
2018-01-17T13:01:13.572Z,60
2018-01-17T13:02:23.561Z,55
2018-01-17T13:03:33.017Z,55
2018-01-17T13:04:43.006Z,60
2018-01-17T13:05:52.967Z,55
2018-01-17T13:07:02.670Z,60
2018-01-17T13:08:12.605Z,65
2018-01-17T13:09:22.581Z,70
2018-01-17T13:10:32.536Z,65
2018-01-17T13:11:42.476Z,70
2018-01-17T13:12:52.185Z,75
2018-01-17T13:14:02.151Z,75
2018-01-17T13:15:11.855Z,80
2018-01-17T13:16:21.547Z,80
2018-01-17T13:17:31.238Z,75
2018-01-17T13:18:40.969Z,75
2018-01-17T13:19:50.922Z,75
2018-01-17T13:21:00.878Z,75
2018-01-17T13:22:10.825Z,75
2018-01-17T13:23:20.519Z,70
2018-01-17T13:24:30.511Z,60
2018-01-17T13:25:40.491Z,55
2018-01-17T13:26:50.437Z,45
2018-01-17T13:28:00.129Z,35
2018-01-17T13:29:10.090Z,30
2018-01-17T13:30:20.040Z,30
2018-01-17T13:31:29.993Z,30
2018-01-17T13:32:39.940Z,30
2018-01-17T13:33:49.689Z,30
2018-01-17T13:34:59.129Z,30
2018-01-17T13:36:08.821Z,25
2018-01-17T13:37:18.532Z,25
2018-01-17T13:38:28.243Z,20
2018-01-17T13:39:37.948Z,20
2018-01-17T13:40:47.902Z,20
2018-01-17T13:41:58.222Z,20
2018-01-17T13:43:07.926Z,20
2018-01-17T13:44:17.860Z,15
2018-01-17T13:45:28.358Z,20
2018-01-17T13:46:38.323Z,20
2018-01-17T13:47:48.278Z,25
2018-01-17T13:48:58.233Z,35
2018-01-17T13:50:07.920Z,40
2018-01-17T13:51:17.887Z,45
2018-01-17T13:52:27.327Z,40
2018-01-17T13:53:37.274Z,40
2018-01-17T13:54:47.230Z,45
2018-01-17T13:55:57.200Z,50
2018-01-17T13:57:07.172Z,55
2018-01-17T13:58:16.621Z,60
2018-01-17T13:59:26.333Z,60
2018-01-17T14:00:36.021Z,55
2018-01-17T14:01:45.974Z,70
2018-01-17T14:02:55.665Z,70
2018-01-17T14:04:05.649Z,70
2018-01-17T14:05:15.669Z,65
2018-01-17T14:06:25.640Z,65
2018-01-17T14:07:35.338Z,65
2018-01-17T14:08:45.548Z,60
2018-01-17T14:09:55.483Z,65
2018-01-17T14:11:05.429Z,85
2018-01-17T14:12:15.388Z,95
2018-01-17T14:13:25.342Z,95
2018-01-17T14:14:35.039Z,85
2018-01-17T14:15:44.991Z,85
2018-01-17T14:16:54.943Z,80
2018-01-17T14:18:04.390Z,75
2018-01-17T14:19:14.357Z,75
2018-01-17T14:20:24.310Z,75
2018-01-17T14:21:34.287Z,75
2018-01-17T14:22:43.717Z,75
2018-01-17T14:23:53.394Z,95
2018-01-17T14:25:03.383Z,105
2018-01-17T14:26:13.329Z,100
2018-01-17T14:27:23.269Z,100
2018-01-17T14:28:32.969Z,90
2018-01-17T14:29:42.705Z,85
2018-01-17T14:30:52.141Z,80
2018-01-17T14:32:02.107Z,75
2018-01-17T14:33:12.045Z,80
2018-01-17T14:34:22.061Z,70
2018-01-17T14:35:32.018Z,70
2018-01-17T14:36:42.015Z,70
2018-01-17T14:37:51.965Z,65
2018-01-17T14:39:01.906Z,60
2018-01-17T14:40:11.864Z,65
2018-01-17T14:41:21.543Z,60
2018-01-17T14:42:31.488Z,55
2018-01-17T14:43:41.462Z,50
2018-01-17T14:44:51.407Z,50
2018-01-17T14:46:01.348Z,50
2018-01-17T14:47:11.281Z,45
2018-01-17T14:48:21.228Z,50
2018-01-17T14:49:31.174Z,55
2018-01-17T14:50:40.856Z,55
2018-01-17T14:51:50.813Z,55
2018-01-17T14:53:00.769Z,55
2018-01-17T14:54:10.478Z,50
2018-01-17T14:55:20.443Z,45
2018-01-17T14:56:30.404Z,45
2018-01-17T14:57:40.087Z,45
2018-01-17T14:58:49.770Z,40
2018-01-17T14:59:59.765Z,35
2018-01-17T15:01:09.487Z,35
2018-01-17T15:02:19.495Z,40
2018-01-17T15:03:29.198Z,35
2018-01-17T15:04:38.884Z,35
2018-01-17T15:05:48.850Z,30
2018-01-17T15:06:58.544Z,25
2018-01-17T15:08:08.491Z,20
2018-01-17T15:09:18.145Z,20
2018-01-17T15:10:28.113Z,20
2018-01-17T15:11:38.179Z,20
2018-01-17T15:12:48.099Z,15
2018-01-17T15:13:58.035Z,15
2018-01-17T15:15:07.981Z,20
2018-01-17T15:16:17.933Z,15
2018-01-17T15:17:27.634Z,15
2018-01-17T15:18:37.582Z,15
2018-01-17T15:19:47.565Z,15
2018-01-17T15:20:57.523Z,15
2018-01-17T15:22:07.210Z,15
2018-01-17T15:23:17.171Z,15
2018-01-17T15:24:26.859Z,10
2018-01-17T15:25:36.288Z,10
2018-01-17T15:26:46.245Z,10
2018-01-17T15:27:56.191Z,5
2018-01-17T15:29:06.194Z,5
2018-01-17T15:30:15.892Z,5
2018-01-17T15:31:25.691Z,5
2018-01-17T15:32:35.660Z,5
2018-01-17T15:33:45.631Z,5
2018-01-17T15:34:55.585Z,0
2018-01-17T15:36:05.266Z,0
2018-01-17T15:37:14.952Z,0
2018-01-17T15:38:24.653Z,0
2018-01-17T15:39:34.350Z,0
2018-01-17T15:40:44.044Z,0
2018-01-17T15:41:53.513Z,0
2018-01-17T15:43:03.467Z,0
2018-01-17T15:44:13.415Z,0
2018-01-17T15:45:23.430Z,0
2018-01-17T15:46:32.876Z,0
2018-01-17T15:47:42.597Z,0
2018-01-17T15:48:52.569Z,0
2018-01-17T15:50:02.263Z,0
2018-01-17T15:51:12.015Z,0
2018-01-17T15:52:21.711Z,0
2018-01-17T15:53:31.679Z,0
2018-01-17T15:54:41.637Z,0
2018-01-17T15:55:51.588Z,0
2018-01-17T15:57:01.526Z,0
2018-01-17T15:58:11.231Z,0
2018-01-17T15:59:20.971Z,0
2018-01-17T16:00:30.665Z,0
2018-01-17T16:01:40.372Z,0
2018-01-17T16:02:50.315Z,0
2018-01-17T16:04:00.274Z,0
2018-01-17T16:05:09.700Z,0
2018-01-17T16:06:19.662Z,0
2018-01-17T16:07:29.629Z,0
2018-01-17T16:08:39.579Z,0
2018-01-17T16:09:49.273Z,0
2018-01-17T16:10:59.276Z,0
2018-01-17T16:12:09.252Z,0
2018-01-17T16:13:19.197Z,0
2018-01-17T16:14:28.879Z,0
2018-01-17T16:15:38.822Z,0
2018-01-17T16:16:48.762Z,0
2018-01-17T16:17:58.734Z,0
2018-01-17T16:19:08.426Z,0
2018-01-17T16:20:18.421Z,0
2018-01-17T16:21:28.356Z,0
2018-01-17T16:22:38.312Z,0
2018-01-17T16:23:47.999Z,0
2018-01-17T16:24:57.961Z,0
2018-01-17T16:26:07.907Z,0
2018-01-17T16:27:17.869Z,0
2018-01-17T16:28:27.807Z,0
2018-01-17T16:29:37.752Z,0
2018-01-17T16:30:47.452Z,0
2018-01-17T16:31:57.212Z,0
2018-01-17T16:33:07.164Z,0
2018-01-17T16:34:17.111Z,0
2018-01-17T16:35:27.075Z,0
2018-01-17T16:36:37.030Z,0
2018-01-17T16:37:46.977Z,0
2018-01-17T16:38:56.932Z,0
2018-01-17T16:40:06.911Z,0
2018-01-17T16:41:16.859Z,0
2018-01-17T16:42:26.811Z,0
2018-01-17T16:43:36.760Z,0
2018-01-17T16:44:46.516Z,0
2018-01-17T16:45:55.950Z,0
2018-01-17T16:47:05.908Z,0
2018-01-17T16:48:15.845Z,0
2018-01-17T16:49:25.785Z,0